Time;durP1;ratioP1;P1;durP2;ratioP2;P2;SDS_P1;SDS_P2;PMS_P1;PMS_P2;Temp;Humidity;BMP_temperature;BMP_pressure;BME280_temperature;BME280_humidity;BME280_pressure;Samples;Min_cycle;Max_cycle;Signal;HPM_P1;HPM_P2
2023/08/07 00:00:12;;;;;;;4.90;1.10;;;15.50;99.90;;;;;;4934420;29;20943;-92
2023/08/07 00:02:38;;;;;;;3.03;1.27;;;15.50;99.90;;;;;;4935675;29;20406;-91
2023/08/07 00:05:05;;;;;;;3.67;1.27;;;15.40;99.90;;;;;;4935719;29;20417;-91
2023/08/07 00:07:30;;;;;;;4.43;1.10;;;15.30;99.90;;;;;;4935596;29;20468;-91
2023/08/07 00:09:56;;;;;;;3.90;1.00;;;15.30;99.90;;;;;;4935742;29;20414;-91
2023/08/07 00:12:21;;;;;;;4.43;1.60;;;15.20;99.90;;;;;;4934957;29;20410;-91
2023/08/07 00:14:50;;;;;;;3.57;1.20;;;15.20;99.90;;;;;;4935683;29;20767;-91
2023/08/07 00:17:16;;;;;;;5.30;1.58;;;15.30;99.90;;;;;;4952101;29;20430;-91
2023/08/07 00:19:41;;;;;;;3.65;1.48;;;15.40;99.90;;;;;;4935549;29;20776;-91
2023/08/07 00:22:07;;;;;;;4.43;1.80;;;15.00;99.90;;;;;;4935267;29;20410;-92
2023/08/07 00:24:33;;;;;;;4.10;1.50;;;14.90;99.90;;;;;;4935525;29;20418;-90
2023/08/07 00:26:58;;;;;;;5.35;1.77;;;14.90;99.90;;;;;;4935021;29;20426;-91
2023/08/07 00:29:24;;;;;;;4.07;1.37;;;14.90;99.90;;;;;;4935690;29;20406;-92
2023/08/07 00:31:50;;;;;;;3.20;1.73;;;14.90;99.90;;;;;;4935613;29;20421;-90
2023/08/07 00:34:15;;;;;;;5.63;2.20;;;14.80;99.90;;;;;;4935212;29;20447;-91
2023/08/07 00:36:41;;;;;;;4.43;1.80;;;14.80;99.90;;;;;;4935082;29;20426;-92
2023/08/07 00:39:08;;;;;;;5.87;2.50;;;14.90;99.90;;;;;;4935432;29;20410;-91
2023/08/07 00:41:33;;;;;;;5.22;2.13;;;14.80;99.90;;;;;;4935343;29;20413;-91
2023/08/07 00:43:59;;;;;;;6.78;2.10;;;14.90;99.90;;;;;;4934694;29;20936;-91
2023/08/07 00:46:25;;;;;;;5.20;1.97;;;14.80;99.90;;;;;;4935003;29;20414;-91
2023/08/07 00:48:52;;;;;;;4.63;2.10;;;15.00;99.90;;;;;;4951052;29;20410;-89
2023/08/07 00:51:19;;;;;;;5.03;2.07;;;15.10;99.90;;;;;;4950970;29;20414;-90
2023/08/07 00:53:45;;;;;;;5.57;2.15;;;14.80;99.90;;;;;;4951313;29;20438;-90
2023/08/07 00:56:11;;;;;;;5.17;1.53;;;14.80;99.90;;;;;;4950905;29;20720;-91
2023/08/07 00:58:37;;;;;;;5.00;1.60;;;14.70;99.90;;;;;;4950760;29;20494;-92
2023/08/07 01:01:04;;;;;;;8.48;2.17;;;14.90;99.90;;;;;;4935064;29;20505;-92
2023/08/07 01:03:30;;;;;;;8.07;2.40;;;14.50;99.90;;;;;;4935163;29;20438;-91
2023/08/07 01:05:56;;;;;;;10.00;2.47;;;14.80;99.90;;;;;;4934650;29;20964;-91
2023/08/07 01:08:22;;;;;;;12.33;2.30;;;14.80;99.90;;;;;;4934928;29;20527;-91
2023/08/07 01:11:17;;;;;;;10.55;2.55;;;14.70;99.90;;;;;;4933662;29;20418;-92
2023/08/07 01:14:01;;;;;;;12.57;2.80;;;14.70;99.90;;;;;;4934418;29;20521;-90
2023/08/07 01:16:50;;;;;;;12.80;2.78;;;14.70;99.90;;;;;;4934897;29;20915;-92
2023/08/07 01:19:27;;;;;;;14.45;2.97;;;14.70;99.90;;;;;;4934613;29;20411;-91
2023/08/07 01:22:13;;;;;;;12.80;2.37;;;15.00;99.90;;;;;;4934529;29;20473;-92
2023/08/07 01:24:41;;;;;;;12.32;3.20;;;14.60;99.90;;;;;;4934413;29;20433;-91
2023/08/07 01:27:18;;;;;;;12.63;2.60;;;14.50;99.90;;;;;;4933543;29;20418;-91
2023/08/07 01:30:04;;;;;;;10.85;2.55;;;14.50;99.90;;;;;;4934610;29;21052;-92
2023/08/07 01:33:07;;;;;;;10.77;2.35;;;14.50;99.90;;;;;;4949849;29;20539;-91
2023/08/07 01:35:38;;;;;;;11.37;2.50;;;14.50;99.90;;;;;;4934377;29;20560;-91
2023/08/07 01:38:05;;;;;;;11.05;2.58;;;14.50;99.90;;;;;;4934460;29;20429;-91
2023/08/07 01:40:32;;;;;;;11.23;2.25;;;14.70;99.90;;;;;;4950168;29;20410;-91
2023/08/07 01:42:58;;;;;;;12.10;2.53;;;14.40;99.90;;;;;;4949882;29;20421;-91
2023/08/07 01:45:28;;;;;;;10.73;2.78;;;14.30;99.90;;;;;;4934417;29;20414;-90
2023/08/07 01:47:54;;;;;;;11.93;2.30;;;14.30;99.90;;;;;;4934462;29;20489;-91
2023/08/07 01:50:21;;;;;;;10.02;2.63;;;14.40;99.90;;;;;;4949654;29;20456;-91
2023/08/07 01:52:47;;;;;;;11.85;2.50;;;14.30;99.90;;;;;;4934187;29;20406;-92
2023/08/07 01:55:16;;;;;;;11.75;2.90;;;14.20;99.90;;;;;;4933743;29;20414;-91
2023/08/07 01:57:42;;;;;;;10.43;2.40;;;14.20;99.90;;;;;;4933832;29;20426;-92
2023/08/07 02:00:08;;;;;;;9.57;2.70;;;14.20;99.90;;;;;;4933819;29;20410;-92
2023/08/07 02:02:35;;;;;;;9.20;2.30;;;14.20;99.90;;;;;;4933244;29;20833;-91
2023/08/07 02:05:01;;;;;;;12.27;2.57;;;14.10;99.90;;;;;;4933356;29;20406;-91
2023/08/07 02:07:27;;;;;;;8.53;2.43;;;14.10;99.90;;;;;;4933918;29;20424;-90
2023/08/07 02:09:52;;;;;;;12.45;3.13;;;14.00;99.90;;;;;;4949798;29;20776;-92
2023/08/07 02:12:18;;;;;;;7.90;1.90;;;14.00;99.90;;;;;;4933803;29;20418;-90
2023/08/07 02:14:43;;;;;;;8.38;2.42;;;14.30;99.90;;;;;;4933510;29;20980;-91
2023/08/07 02:17:09;;;;;;;10.57;2.57;;;14.00;99.90;;;;;;4933168;29;20418;-92
2023/08/07 02:19:34;;;;;;;9.00;2.03;;;14.10;99.90;;;;;;4933554;29;20841;-91
2023/08/07 02:22:01;;;;;;;15.00;3.27;;;13.80;99.90;;;;;;4932839;29;20751;-91
2023/08/07 02:24:26;;;;;;;9.77;2.43;;;13.70;99.90;;;;;;4933799;29;20451;-92
2023/08/07 02:26:52;;;;;;;10.55;2.78;;;13.80;99.90;;;;;;4933231;29;20457;-91
2023/08/07 02:29:18;;;;;;;10.82;2.72;;;14.00;99.90;;;;;;4933093;29;20410;-92
2023/08/07 02:31:43;;;;;;;10.40;3.00;;;13.70;99.90;;;;;;4933039;29;20933;-92
2023/08/07 02:34:09;;;;;;;6.13;1.52;;;13.70;99.90;;;;;;4933367;29;20492;-90
2023/08/07 02:36:35;;;;;;;10.07;2.50;;;13.80;99.90;;;;;;4933908;29;20433;-91
2023/08/07 02:39:00;;;;;;;11.75;3.22;;;14.00;99.90;;;;;;4948808;29;20515;-90
2023/08/07 02:41:26;;;;;;;14.82;4.18;;;13.70;99.90;;;;;;4933474;29;20450;-91
2023/08/07 02:43:51;;;;;;;13.80;4.17;;;13.80;99.90;;;;;;4932447;29;20433;-90
2023/08/07 02:46:17;;;;;;;16.27;5.30;;;13.90;99.90;;;;;;4932951;29;20438;-91
2023/08/07 02:48:44;;;;;;;15.33;5.37;;;14.00;99.90;;;;;;4933204;29;20519;-91
2023/08/07 02:51:10;;;;;;;16.33;4.80;;;14.00;99.90;;;;;;4949139;29;20508;-91
2023/08/07 02:53:35;;;;;;;15.68;5.13;;;14.30;99.90;;;;;;4932697;29;20433;-91
2023/08/07 02:56:01;;;;;;;17.08;5.50;;;14.30;99.90;;;;;;4932602;29;20421;-90
2023/08/07 02:58:27;;;;;;;18.33;5.23;;;14.20;99.90;;;;;;4948633;29;20522;-91
2023/08/07 03:00:53;;;;;;;14.35;4.80;;;14.30;99.90;;;;;;4948396;29;20422;-90
2023/08/07 03:03:19;;;;;;;10.63;4.00;;;14.30;99.90;;;;;;4932621;29;20988;-91
2023/08/07 03:05:50;;;;;;;15.17;4.80;;;14.30;99.90;;;;;;4932724;29;20410;-91
2023/08/07 03:08:16;;;;;;;16.88;5.68;;;14.30;99.90;;;;;;4932605;29;20422;-91
2023/08/07 03:10:42;;;;;;;16.47;5.80;;;14.20;99.90;;;;;;4948371;29;20406;-92
2023/08/07 03:13:07;;;;;;;14.27;5.20;;;14.10;99.90;;;;;;4932535;29;20496;-90
2023/08/07 03:15:33;;;;;;;11.20;4.55;;;14.50;99.90;;;;;;4932769;29;20506;-90
2023/08/07 03:17:58;;;;;;;12.13;4.43;;;14.40;99.90;;;;;;4932453;29;20421;-90
2023/08/07 03:20:24;;;;;;;13.57;3.88;;;14.80;99.90;;;;;;4932662;29;20492;-91
2023/08/07 03:22:50;;;;;;;16.30;3.73;;;14.60;99.90;;;;;;4948072;29;20428;-90
2023/08/07 03:25:15;;;;;;;14.40;4.07;;;14.70;99.90;;;;;;4932907;29;20791;-90
2023/08/07 03:27:41;;;;;;;13.93;3.93;;;14.80;99.90;;;;;;4932431;29;20418;-92
2023/08/07 03:30:07;;;;;;;16.58;4.38;;;14.80;99.90;;;;;;4932524;29;20414;-90
2023/08/07 03:32:33;;;;;;;16.40;4.15;;;14.90;99.90;;;;;;4932153;29;20413;-90
2023/08/07 03:34:58;;;;;;;16.47;4.87;;;14.90;99.90;;;;;;4934700;29;20445;-91
2023/08/07 03:37:24;;;;;;;12.67;3.67;;;15.00;99.90;;;;;;4936621;29;20481;-91
2023/08/07 03:39:50;;;;;;;17.25;3.92;;;14.90;99.90;;;;;;4936488;29;20980;-91
2023/08/07 03:42:15;;;;;;;16.23;3.53;;;15.00;99.90;;;;;;4936427;29;20410;-91
2023/08/07 03:44:41;;;;;;;14.15;3.30;;;15.10;99.90;;;;;;4936308;29;21099;-91
2023/08/07 03:47:07;;;;;;;14.73;3.33;;;15.00;99.90;;;;;;4935552;29;20424;-90
2023/08/07 03:49:32;;;;;;;16.35;3.25;;;15.00;99.90;;;;;;4935689;29;20413;-90
2023/08/07 03:51:59;;;;;;;15.30;2.95;;;15.00;99.90;;;;;;4936462;29;20461;-91
2023/08/07 03:54:25;;;;;;;11.77;2.75;;;15.00;99.90;;;;;;4936235;29;20748;-91
2023/08/07 03:56:51;;;;;;;12.57;3.13;;;14.90;99.90;;;;;;4951524;29;20979;-90
2023/08/07 03:59:17;;;;;;;14.48;3.30;;;15.00;99.90;;;;;;4935881;29;20508;-91
2023/08/07 04:01:43;;;;;;;13.57;3.30;;;14.90;99.90;;;;;;4935912;29;20798;-90
2023/08/07 04:04:08;;;;;;;14.37;3.20;;;15.10;99.90;;;;;;4935917;29;20445;-91
2023/08/07 04:06:34;;;;;;;10.45;3.25;;;14.90;99.90;;;;;;4936159;29;20410;-91
2023/08/07 04:09:00;;;;;;;15.83;3.77;;;14.90;99.90;;;;;;4936390;29;20492;-90
2023/08/07 04:11:26;;;;;;;14.55;2.85;;;14.90;99.90;;;;;;4951616;29;20514;-90
2023/08/07 04:13:52;;;;;;;12.98;3.65;;;15.20;99.90;;;;;;4951369;29;20509;-92
2023/08/07 04:16:17;;;;;;;12.02;3.55;;;15.40;99.90;;;;;;4935470;29;20425;-91
2023/08/07 04:18:43;;;;;;;12.45;2.95;;;15.10;99.90;;;;;;4935907;29;20421;-88
2023/08/07 04:21:09;;;;;;;9.00;2.03;;;15.10;99.90;;;;;;4935218;29;20437;-91
2023/08/07 04:23:34;;;;;;;10.35;2.38;;;15.10;99.90;;;;;;4935490;29;20414;-90
2023/08/07 04:26:00;;;;;;;8.80;2.10;;;15.30;99.90;;;;;;4950987;29;20414;-89
2023/08/07 04:28:28;;;;;;;15.88;3.20;;;15.00;99.90;;;;;;4951121;29;21279;-90
2023/08/07 04:30:54;;;;;;;13.75;3.72;;;15.20;99.90;;;;;;4951063;29;20414;-90
2023/08/07 04:33:20;;;;;;;11.27;3.50;;;14.80;99.90;;;;;;4950965;29;20475;-89
2023/08/07 04:35:46;;;;;;;15.93;3.83;;;14.80;99.90;;;;;;4950634;29;20751;-90
2023/08/07 04:38:14;;;;;;;16.65;4.53;;;14.80;99.90;;;;;;4934801;29;20410;-89
2023/08/07 04:40:47;;;;;;;19.83;4.80;;;14.80;99.90;;;;;;4930254;29;20427;-89
2023/08/07 04:43:14;;;;;;;14.20;4.43;;;14.70;99.90;;;;;;4914646;29;20934;-90
2023/08/07 04:45:40;;;;;;;15.50;3.80;;;14.80;99.90;;;;;;4914943;29;20772;-87
2023/08/07 04:48:07;;;;;;;17.88;4.57;;;14.70;99.90;;;;;;4915796;29;20779;-88
2023/08/07 04:50:33;;;;;;;22.20;5.40;;;14.70;99.90;;;;;;4915642;29;20419;-90
2023/08/07 04:52:59;;;;;;;22.00;5.40;;;14.70;99.90;;;;;;4915422;29;20420;-89
2023/08/07 04:55:25;;;;;;;21.20;4.95;;;14.70;99.90;;;;;;4925564;29;20502;-89
2023/08/07 04:57:54;;;;;;;25.02;5.57;;;14.70;99.90;;;;;;4924589;29;20421;-89
2023/08/07 05:00:20;;;;;;;19.15;4.95;;;14.70;99.90;;;;;;4924846;29;20497;-88
2023/08/07 05:02:48;;;;;;;25.10;5.68;;;14.70;99.90;;;;;;4924303;29;20480;-90
2023/08/07 05:05:14;;;;;;;17.20;4.72;;;14.60;99.90;;;;;;4923285;29;20415;-90
2023/08/07 05:07:41;;;;;;;19.13;5.10;;;15.00;99.90;;;;;;4915056;29;20416;-91
2023/08/07 05:10:07;;;;;;;20.77;5.30;;;14.70;99.90;;;;;;4930977;29;20463;-89
2023/08/07 05:12:32;;;;;;;21.70;5.75;;;14.70;99.90;;;;;;4915810;29;20492;-90
2023/08/07 05:14:58;;;;;;;23.00;5.30;;;14.70;99.90;;;;;;4914752;29;20439;-90
2023/08/07 05:17:23;;;;;;;20.15;5.00;;;14.80;99.90;;;;;;4914853;29;20411;-88
2023/08/07 05:19:49;;;;;;;20.47;5.20;;;14.80;99.90;;;;;;4914554;29;20422;-88
2023/08/07 05:22:15;;;;;;;18.05;4.60;;;14.90;99.90;;;;;;4914375;29;20462;-89
2023/08/07 05:24:41;;;;;;;20.00;4.50;;;14.90;99.90;;;;;;4914778;29;20426;-89
2023/08/07 05:27:08;;;;;;;15.30;4.00;;;15.00;99.90;;;;;;4914090;29;20919;-88
2023/08/07 05:29:34;;;;;;;16.77;4.43;;;15.40;99.90;;;;;;4915330;29;20435;-89
2023/08/07 05:32:00;;;;;;;17.08;4.00;;;15.10;99.90;;;;;;4933310;29;20863;-88
2023/08/07 05:34:26;;;;;;;13.10;3.15;;;15.10;99.90;;;;;;4948881;29;20437;-89
2023/08/07 05:36:51;;;;;;;12.80;3.37;;;15.10;99.90;;;;;;4933570;29;20418;-92
2023/08/07 05:39:17;;;;;;;13.82;3.35;;;15.20;99.90;;;;;;4933565;29;20417;-90
2023/08/07 05:41:43;;;;;;;12.53;3.37;;;15.20;99.90;;;;;;4917210;29;20490;-90
2023/08/07 05:44:09;;;;;;;14.32;3.67;;;15.00;99.90;;;;;;4914765;29;20422;-89
2023/08/07 05:46:34;;;;;;;12.52;3.70;;;15.00;99.90;;;;;;4930192;29;20439;-91
2023/08/07 05:49:00;;;;;;;13.33;3.07;;;15.20;99.90;;;;;;4930775;29;20420;-90
2023/08/07 05:51:25;;;;;;;15.35;3.78;;;15.00;99.90;;;;;;4914284;29;20415;-91
2023/08/07 05:53:51;;;;;;;14.10;3.47;;;15.10;99.90;;;;;;4916778;29;20524;-92
2023/08/07 05:56:17;;;;;;;11.02;3.40;;;14.90;99.90;;;;;;4932869;29;20402;-91
2023/08/07 05:58:43;;;;;;;12.02;3.03;;;15.20;99.90;;;;;;4924839;29;20519;-90
2023/08/07 06:01:09;;;;;;;15.13;3.72;;;15.20;99.90;;;;;;4914652;29;20506;-89
2023/08/07 06:03:34;;;;;;;15.23;3.80;;;14.80;99.90;;;;;;4914421;29;20458;-90
2023/08/07 06:06:00;;;;;;;15.38;3.53;;;14.80;99.90;;;;;;4913608;29;20427;-90
2023/08/07 06:08:26;;;;;;;11.50;3.13;;;14.80;99.90;;;;;;4945004;29;20454;-89
2023/08/07 06:10:51;;;;;;;13.43;3.40;;;14.90;99.90;;;;;;4914000;29;20415;-89
2023/08/07 06:13:17;;;;;;;11.90;2.95;;;15.20;99.90;;;;;;4914270;29;20526;-91
2023/08/07 06:15:43;;;;;;;11.07;3.50;;;15.20;99.90;;;;;;4930124;29;20993;-90
2023/08/07 06:18:08;;;;;;;14.00;3.50;;;15.00;99.90;;;;;;4914223;29;20416;-87
2023/08/07 06:20:35;;;;;;;13.47;3.77;;;15.30;99.90;;;;;;4914690;29;20467;-91
2023/08/07 06:23:00;;;;;;;12.07;2.63;;;15.10;99.90;;;;;;4914047;29;20420;-90
2023/08/07 06:25:27;;;;;;;10.05;2.40;;;15.10;99.90;;;;;;4915197;29;20423;-90
2023/08/07 06:27:53;;;;;;;10.13;1.77;;;15.40;99.90;;;;;;4913450;29;20428;-90
2023/08/07 06:30:19;;;;;;;7.67;1.30;;;15.20;99.90;;;;;;4913651;29;21172;-90
2023/08/07 06:32:45;;;;;;;8.30;1.50;;;15.10;99.90;;;;;;4913422;29;20457;-90
2023/08/07 06:35:10;;;;;;;8.40;1.48;;;15.20;99.90;;;;;;4912841;29;20435;-90
2023/08/07 06:37:36;;;;;;;8.70;1.80;;;15.20;99.90;;;;;;4921310;29;20424;-90
2023/08/07 06:40:02;;;;;;;9.68;1.95;;;15.30;99.90;;;;;;4913958;29;20496;-91
2023/08/07 06:42:28;;;;;;;9.50;1.75;;;15.10;99.90;;;;;;4925584;29;20414;-89
2023/08/07 06:44:53;;;;;;;9.32;1.90;;;15.30;99.90;;;;;;4932697;29;20544;-90
2023/08/07 06:47:19;;;;;;;8.90;1.50;;;15.10;99.90;;;;;;4932333;29;20409;-90
2023/08/07 06:49:45;;;;;;;6.82;1.52;;;15.00;99.90;;;;;;4932349;29;20418;-89
2023/08/07 06:52:10;;;;;;;6.88;1.40;;;15.10;99.90;;;;;;4948335;29;20422;-90
2023/08/07 06:54:36;;;;;;;10.33;1.50;;;15.10;99.90;;;;;;4932795;29;20452;-90
2023/08/07 06:57:02;;;;;;;7.63;1.55;;;14.90;99.90;;;;;;4933014;29;20508;-90
2023/08/07 06:59:27;;;;;;;6.07;1.40;;;14.80;99.90;;;;;;4932782;29;20884;-90
2023/08/07 07:01:53;;;;;;;6.07;1.40;;;15.10;99.90;;;;;;4932635;29;20441;-91
2023/08/07 07:04:19;;;;;;;8.13;1.50;;;14.90;99.90;;;;;;4932568;29;20421;-90
2023/08/07 07:06:45;;;;;;;11.03;1.83;;;14.90;99.90;;;;;;4948245;29;20490;-90
2023/08/07 07:09:10;;;;;;;9.18;1.65;;;15.20;99.90;;;;;;4932547;29;20418;-90
2023/08/07 07:11:37;;;;;;;9.00;1.95;;;15.30;99.90;;;;;;4948981;29;20428;-90
2023/08/07 07:14:03;;;;;;;8.90;2.10;;;15.60;99.90;;;;;;4932066;29;20445;-91
2023/08/07 07:16:29;;;;;;;9.10;2.00;;;15.60;99.90;;;;;;4932233;29;20988;-90
2023/08/07 07:18:56;;;;;;;13.70;2.90;;;15.60;99.90;;;;;;4932365;29;20422;-91
2023/08/07 07:21:21;;;;;;;10.32;2.35;;;15.50;99.90;;;;;;4948024;29;20417;-90
2023/08/07 07:23:47;;;;;;;11.60;2.40;;;15.20;99.90;;;;;;4932496;29;20426;-90
2023/08/07 07:26:12;;;;;;;11.57;2.95;;;15.30;99.90;;;;;;4932267;29;20814;-90
2023/08/07 07:28:38;;;;;;;12.13;3.20;;;15.00;99.90;;;;;;4932142;29;20425;-90
2023/08/07 07:31:04;;;;;;;11.18;3.65;;;14.90;99.90;;;;;;4932310;29;20417;-89
2023/08/07 07:33:31;;;;;;;9.38;3.03;;;15.40;99.90;;;;;;4932258;29;20438;-91
2023/08/07 07:35:57;;;;;;;11.32;3.38;;;15.30;99.90;;;;;;4948387;29;20422;-91
2023/08/07 07:38:23;;;;;;;10.15;2.58;;;15.60;99.90;;;;;;4932422;29;20507;-90
2023/08/07 07:40:48;;;;;;;10.07;2.90;;;15.80;99.90;;;;;;4932370;29;20448;-90
2023/08/07 07:43:14;;;;;;;13.00;2.80;;;15.80;99.90;;;;;;4932229;29;20414;-91
2023/08/07 07:45:40;;;;;;;12.63;3.13;;;15.30;99.90;;;;;;4931814;29;20488;-90
2023/08/07 07:48:08;;;;;;;11.68;2.85;;;15.40;99.90;;;;;;4932412;29;20410;-91
2023/08/07 07:50:34;;;;;;;15.02;3.10;;;15.30;99.90;;;;;;4948415;29;20529;-90
2023/08/07 07:52:59;;;;;;;15.25;3.45;;;15.10;99.90;;;;;;4948160;29;20512;-90
2023/08/07 07:55:25;;;;;;;14.33;3.63;;;15.20;99.90;;;;;;4932051;29;21088;-90
2023/08/07 07:57:51;;;;;;;15.73;3.88;;;15.30;99.90;;;;;;4932321;29;20526;-90
2023/08/07 08:00:18;;;;;;;15.43;3.90;;;14.70;99.90;;;;;;4947378;29;21257;-88
2023/08/07 08:02:43;;;;;;;12.80;3.73;;;14.60;99.90;;;;;;4930995;29;20445;-89
2023/08/07 08:05:12;;;;;;;11.68;4.10;;;14.60;99.90;;;;;;4932069;29;20917;-90
2023/08/07 08:07:39;;;;;;;11.68;3.13;;;14.60;99.90;;;;;;4932082;29;20789;-91
2023/08/07 08:10:08;;;;;;;11.43;3.28;;;14.60;99.90;;;;;;4947400;29;20422;-89
2023/08/07 08:12:35;;;;;;;14.70;4.10;;;14.60;99.90;;;;;;4931381;29;20414;-91
2023/08/07 08:15:02;;;;;;;13.60;3.10;;;14.80;99.90;;;;;;4931846;29;20851;-90
2023/08/07 08:17:27;;;;;;;10.95;3.45;;;15.20;99.90;;;;;;4932310;29;20441;-93
2023/08/07 08:19:53;;;;;;;10.02;2.42;;;15.60;99.90;;;;;;4932793;29;20769;-91
2023/08/07 08:22:19;;;;;;;10.00;2.17;;;15.50;99.90;;;;;;4935363;29;20450;-91
2023/08/07 08:24:45;;;;;;;7.20;1.67;;;16.00;99.90;;;;;;4935283;29;20418;-90
2023/08/07 08:27:11;;;;;;;7.45;1.58;;;15.90;99.90;;;;;;4935266;29;20830;-90
2023/08/07 08:29:36;;;;;;;9.38;1.70;;;16.20;99.90;;;;;;4935405;29;20501;-90
2023/08/07 08:32:02;;;;;;;6.93;1.87;;;16.50;99.90;;;;;;4918825;29;20404;-92
2023/08/07 08:34:28;;;;;;;6.90;1.33;;;16.20;99.90;;;;;;4916022;29;20444;-90
2023/08/07 08:36:53;;;;;;;7.20;1.47;;;16.60;99.90;;;;;;4916223;29;20506;-91
2023/08/07 08:39:19;;;;;;;9.00;1.40;;;16.80;99.90;;;;;;4916407;29;21018;-90
2023/08/07 08:41:49;;;;;;;8.47;2.00;;;16.90;99.90;;;;;;4915902;29;20424;-93
2023/08/07 08:44:18;;;;;;;9.35;1.85;;;16.70;99.90;;;;;;4915934;29;20431;-90
2023/08/07 08:46:47;;;;;;;6.45;1.65;;;16.90;99.90;;;;;;4915827;29;20415;-91
2023/08/07 08:49:20;;;;;;;9.20;1.52;;;17.10;99.90;;;;;;4916086;29;20447;-91
2023/08/07 08:51:46;;;;;;;6.75;1.40;;;16.90;99.90;;;;;;4915846;29;20447;-92
2023/08/07 08:54:13;;;;;;;7.43;1.50;;;17.20;99.90;;;;;;4915878;29;20868;-92
2023/08/07 08:56:39;;;;;;;8.98;1.30;;;17.20;99.90;;;;;;4915400;29;20450;-90
2023/08/07 08:59:04;;;;;;;5.47;1.08;;;17.40;99.90;;;;;;4915365;29;20423;-90
2023/08/07 09:01:31;;;;;;;7.90;1.50;;;17.30;95.00;;;;;;4915272;29;20430;-91
2023/08/07 09:03:57;;;;;;;5.60;1.03;;;17.60;99.90;;;;;;4931370;29;20419;-90
2023/08/07 09:06:24;;;;;;;7.95;1.38;;;17.60;93.90;;;;;;4931457;29;20416;-92
2023/08/07 09:08:50;;;;;;;9.98;1.90;;;17.50;99.90;;;;;;4931331;29;20566;-91
2023/08/07 09:11:17;;;;;;;7.82;1.40;;;17.30;98.90;;;;;;4915253;29;20466;-89
2023/08/07 09:13:47;;;;;;;8.45;1.80;;;17.10;99.90;;;;;;4914603;29;20522;-90
2023/08/07 09:16:12;;;;;;;7.57;1.50;;;17.20;99.90;;;;;;4930827;29;20784;-91
2023/08/07 09:18:39;;;;;;;8.43;2.28;;;16.80;99.90;;;;;;4915210;29;20427;-90
2023/08/07 09:21:04;;;;;;;8.15;1.85;;;16.80;99.90;;;;;;4914967;29;20415;-90
2023/08/07 09:23:30;;;;;;;9.33;1.83;;;16.90;99.90;;;;;;4914828;29;20475;-90
2023/08/07 09:26:00;;;;;;;8.90;1.80;;;16.90;99.90;;;;;;4914903;29;20426;-92
2023/08/07 09:28:28;;;;;;;10.40;1.95;;;17.10;99.90;;;;;;4930403;29;20435;-90
2023/08/07 09:30:53;;;;;;;8.00;1.58;;;17.30;99.90;;;;;;4930861;29;20474;-90
2023/08/07 09:33:30;;;;;;;7.38;1.60;;;17.30;99.90;;;;;;4914250;29;20415;-89
2023/08/07 09:36:00;;;;;;;9.93;1.77;;;17.50;96.60;;;;;;4915077;29;20423;-90
2023/08/07 09:38:32;;;;;;;7.00;1.17;;;17.70;99.90;;;;;;4914609;29;20423;-89
2023/08/07 09:41:04;;;;;;;5.83;1.60;;;18.10;87.00;;;;;;4914064;29;20955;-91
2023/08/07 09:43:36;;;;;;;7.57;1.33;;;18.20;77.20;;;;;;4914291;29;20936;-90
2023/08/07 09:46:06;;;;;;;6.97;1.17;;;17.80;81.10;;;;;;4914259;29;20514;-88
2023/08/07 09:48:39;;;;;;;6.43;1.40;;;17.60;87.00;;;;;;4930221;29;20420;-89
2023/08/07 09:51:05;;;;;;;8.93;1.50;;;17.30;84.40;;;;;;4914202;29;20403;-89
2023/08/07 09:53:31;;;;;;;8.20;1.30;;;17.30;96.00;;;;;;4914017;29;20455;-90
2023/08/07 09:55:57;;;;;;;7.97;1.27;;;17.10;92.50;;;;;;4914172;29;20423;-89
2023/08/07 09:58:24;;;;;;;6.07;1.50;;;17.10;94.70;;;;;;4914337;29;20427;-91
2023/08/07 10:00:52;;;;;;;7.43;1.75;;;17.30;93.30;;;;;;4914188;29;20893;-88
2023/08/07 10:03:20;;;;;;;6.90;1.10;;;17.50;99.90;;;;;;4930059;29;20421;-90
2023/08/07 10:05:46;;;;;;;7.70;1.52;;;17.90;99.90;;;;;;4929699;29;20490;-90
2023/08/07 10:08:12;;;;;;;7.13;1.10;;;17.90;91.90;;;;;;4929204;29;20412;-89
2023/08/07 10:10:38;;;;;;;6.00;1.27;;;17.80;93.20;;;;;;4929477;29;20411;-91
2023/08/07 10:13:04;;;;;;;6.97;1.50;;;17.70;93.40;;;;;;4913179;29;20408;-87
2023/08/07 10:15:32;;;;;;;6.00;1.58;;;17.40;94.30;;;;;;4929601;29;20533;-88
2023/08/07 10:17:58;;;;;;;9.00;1.33;;;17.70;91.80;;;;;;4913420;29;20432;-90
2023/08/07 10:20:29;;;;;;;9.60;1.60;;;17.00;91.60;;;;;;4929545;29;20494;-89
2023/08/07 10:23:08;;;;;;;8.63;1.50;;;17.10;99.60;;;;;;4913605;29;20483;-90
2023/08/07 10:25:37;;;;;;;9.52;1.77;;;17.40;99.90;;;;;;4929414;29;20973;-91
2023/08/07 10:28:05;;;;;;;7.78;2.10;;;17.90;97.10;;;;;;4913398;29;20416;-88
2023/08/07 10:30:33;;;;;;;5.53;1.10;;;18.50;99.20;;;;;;4913262;29;20422;-89
2023/08/07 10:32:59;;;;;;;6.37;1.63;;;19.00;91.50;;;;;;4913829;29;20820;-90
2023/08/07 10:35:32;;;;;;;5.07;1.00;;;19.10;79.60;;;;;;4913121;29;20491;-91
2023/08/07 10:38:11;;;;;;;5.53;1.00;;;19.10;72.40;;;;;;4929135;29;20424;-90
2023/08/07 10:41:05;;;;;;;5.95;1.05;;;19.40;76.60;;;;;;4913522;29;20426;-93
2023/08/07 10:43:36;;;;;;;6.63;1.20;;;19.80;69.60;;;;;;4913424;29;20412;-91
2023/08/07 10:46:23;;;;;;;7.55;0.88;;;20.20;69.10;;;;;;4913424;29;20422;-92
2023/08/07 10:48:57;;;;;;;6.07;0.80;;;20.50;66.60;;;;;;4913442;29;20428;-91
2023/08/07 10:51:30;;;;;;;6.88;1.40;;;20.40;68.90;;;;;;4913236;29;20439;-89
2023/08/07 10:53:56;;;;;;;6.38;0.98;;;20.40;63.00;;;;;;4913523;29;20440;-91
2023/08/07 10:56:34;;;;;;;4.80;0.97;;;20.10;65.70;;;;;;4913180;29;20985;-91
2023/08/07 10:59:11;;;;;;;6.13;1.02;;;19.70;67.50;;;;;;4913105;29;20466;-90
2023/08/07 11:01:40;;;;;;;5.10;0.90;;;19.80;68.30;;;;;;4913569;29;20466;-91
2023/08/07 11:04:14;;;;;;;5.68;0.98;;;20.30;70.20;;;;;;4913397;29;20478;-90
2023/08/07 11:06:42;;;;;;;6.53;1.00;;;20.30;66.50;;;;;;4913855;29;20416;-91
2023/08/07 11:09:09;;;;;;;6.82;0.82;;;20.20;68.70;;;;;;4913262;29;20915;-89
2023/08/07 11:11:46;;;;;;;5.80;1.30;;;20.00;63.90;;;;;;4913175;29;20470;-90
2023/08/07 11:14:16;;;;;;;4.10;1.20;;;19.70;71.70;;;;;;4913223;29;20498;-89
2023/08/07 11:16:44;;;;;;;5.75;1.20;;;19.60;68.60;;;;;;4913113;29;20419;-89
2023/08/07 11:19:11;;;;;;;5.50;0.73;;;19.50;67.20;;;;;;4913276;29;20463;-89
2023/08/07 11:21:37;;;;;;;5.68;1.02;;;19.30;67.00;;;;;;4912898;29;20495;-88
2023/08/07 11:24:03;;;;;;;6.53;1.20;;;19.20;68.50;;;;;;4913289;29;20918;-90
2023/08/07 11:26:29;;;;;;;4.15;1.08;;;19.10;75.30;;;;;;4922523;29;20417;-90
2023/08/07 11:28:55;;;;;;;6.13;1.23;;;19.40;76.90;;;;;;4930881;29;20414;-91
2023/08/07 11:31:24;;;;;;;5.38;1.00;;;19.20;87.20;;;;;;4932068;29;20425;-89
2023/08/07 11:34:02;;;;;;;5.13;1.10;;;19.40;80.10;;;;;;4945353;29;20444;-91
2023/08/07 11:36:28;;;;;;;5.70;1.25;;;19.60;72.80;;;;;;4932252;29;20462;-89
2023/08/07 11:38:54;;;;;;;5.20;1.00;;;20.00;80.40;;;;;;4931506;29;20449;-90
2023/08/07 11:41:20;;;;;;;6.63;1.17;;;20.20;71.90;;;;;;4964095;28;20449;-90
2023/08/07 11:43:46;;;;;;;7.32;1.10;;;20.30;75.10;;;;;;4963800;28;20418;-91
2023/08/07 11:46:14;;;;;;;5.40;0.98;;;20.00;74.60;;;;;;4931702;29;20414;-90
2023/08/07 11:48:42;;;;;;;5.35;1.10;;;19.80;69.60;;;;;;4932462;29;20870;-90
2023/08/07 11:51:08;;;;;;;6.13;1.20;;;19.40;76.30;;;;;;4931907;29;20925;-91
2023/08/07 11:53:38;;;;;;;6.18;1.27;;;19.50;81.20;;;;;;4964030;28;20445;-90
2023/08/07 11:56:05;;;;;;;5.43;1.15;;;19.50;86.10;;;;;;4934202;29;20432;-89
2023/08/07 11:58:39;;;;;;;5.40;1.10;;;19.70;93.00;;;;;;4935208;29;20421;-89
2023/08/07 12:01:06;;;;;;;5.22;0.93;;;19.60;90.20;;;;;;4934052;29;20422;-91
2023/08/07 12:03:36;;;;;;;4.43;0.70;;;19.70;90.20;;;;;;4932375;29;20481;-90
2023/08/07 12:06:03;;;;;;;5.50;0.90;;;18.80;89.50;;;;;;4916514;29;20911;-89
2023/08/07 12:08:40;;;;;;;4.67;0.90;;;18.80;99.90;;;;;;4932103;29;20426;-91
2023/08/07 12:11:10;;;;;;;5.03;0.80;;;18.50;99.90;;;;;;4916405;29;20426;-90
2023/08/07 12:13:41;;;;;;;5.22;0.85;;;18.40;99.90;;;;;;4924328;29;20472;-89
2023/08/07 12:16:08;;;;;;;5.33;1.07;;;18.60;99.90;;;;;;4919912;29;20427;-90
2023/08/07 12:18:35;;;;;;;4.67;0.77;;;19.40;99.90;;;;;;4931850;29;20809;-89
2023/08/07 12:21:04;;;;;;;4.53;0.82;;;19.40;99.90;;;;;;4935459;29;21060;-90
2023/08/07 12:23:33;;;;;;;4.20;0.80;;;20.00;98.60;;;;;;4934985;29;20406;-89
2023/08/07 12:25:59;;;;;;;3.10;0.80;;;20.30;88.10;;;;;;4934729;29;20877;-91
2023/08/07 12:28:25;;;;;;;3.85;0.50;;;20.60;77.70;;;;;;4934680;29;20421;-91
2023/08/07 12:30:51;;;;;;;3.40;0.60;;;20.80;73.50;;;;;;4950896;29;20416;-91
2023/08/07 12:33:18;;;;;;;5.75;0.82;;;20.80;67.60;;;;;;4934480;29;20460;-91
2023/08/07 12:35:43;;;;;;;2.97;0.60;;;20.50;66.60;;;;;;4950663;29;20975;-91
2023/08/07 12:38:10;;;;;;;4.95;1.15;;;19.90;66.50;;;;;;4933827;29;20418;-91
2023/08/07 12:40:36;;;;;;;4.80;0.90;;;19.60;68.00;;;;;;4933880;29;20453;-90
2023/08/07 12:43:05;;;;;;;5.07;1.20;;;19.70;80.90;;;;;;4933774;29;20513;-91